sensor_id;sensor_type;location;lat;lon;timestamp;pressure;altitude;pressure_sealevel;temperature;humidity
57644;BME280;43474;46.510;6.686;2023-09-12T00:02:04;96242.22;;;25.06;68.21
57644;BME280;43474;46.510;6.686;2023-09-12T00:04:30;96251.78;;;25.12;68.25
57644;BME280;43474;46.510;6.686;2023-09-12T00:06:56;96247.13;;;25.12;68.50
57644;BME280;43474;46.510;6.686;2023-09-12T00:09:22;96245.88;;;25.10;68.64
57644;BME280;43474;46.510;6.686;2023-09-12T00:11:47;96252.09;;;25.10;68.50
57644;BME280;43474;46.510;6.686;2023-09-12T00:14:17;96248.28;;;25.11;68.67
57644;BME280;43474;46.510;6.686;2023-09-12T00:16:43;96245.88;;;25.10;68.75
57644;BME280;43474;46.510;6.686;2023-09-12T00:19:08;96249.06;;;25.12;68.99
57644;BME280;43474;46.510;6.686;2023-09-12T00:21:34;96240.44;;;25.10;68.92
57644;BME280;43474;46.510;6.686;2023-09-12T00:24:00;96252.09;;;25.10;69.05
57644;BME280;43474;46.510;6.686;2023-09-12T00:26:25;96243.94;;;25.10;69.44
57644;BME280;43474;46.510;6.686;2023-09-12T00:28:51;96234.06;;;25.06;69.28
57644;BME280;43474;46.510;6.686;2023-09-12T00:31:16;96243.63;;;25.12;69.76
57644;BME280;43474;46.510;6.686;2023-09-12T00:33:42;96244.75;;;25.11;69.73
57644;BME280;43474;46.510;6.686;2023-09-12T00:36:07;96220.16;;;24.95;69.55
57644;BME280;43474;46.510;6.686;2023-09-12T00:38:33;96225.84;;;25.02;69.96
57644;BME280;43474;46.510;6.686;2023-09-12T00:40:59;96227.06;;;25.05;70.05
57644;BME280;43474;46.510;6.686;2023-09-12T00:43:24;96233.88;;;25.11;70.19
57644;BME280;43474;46.510;6.686;2023-09-12T00:45:50;96230.88;;;25.12;70.29
57644;BME280;43474;46.510;6.686;2023-09-12T00:48:16;96216.84;;;25.10;70.26
57644;BME280;43474;46.510;6.686;2023-09-12T00:50:43;96221.03;;;25.08;70.51
57644;BME280;43474;46.510;6.686;2023-09-12T00:53:11;96225.44;;;25.12;70.50
57644;BME280;43474;46.510;6.686;2023-09-12T00:55:39;96227.38;;;25.12;70.60
57644;BME280;43474;46.510;6.686;2023-09-12T00:58:08;96228.94;;;25.13;70.90
57644;BME280;43474;46.510;6.686;2023-09-12T01:00:34;96218.09;;;25.13;70.69
57644;BME280;43474;46.510;6.686;2023-09-12T01:03:00;96214.81;;;25.07;70.51
57644;BME280;43474;46.510;6.686;2023-09-12T01:05:26;96216.84;;;25.10;70.66
57644;BME280;43474;46.510;6.686;2023-09-12T01:07:52;96210.31;;;25.11;71.02
57644;BME280;43474;46.510;6.686;2023-09-12T01:10:18;96211.59;;;25.05;70.86
57644;BME280;43474;46.510;6.686;2023-09-12T01:12:44;96220.69;;;25.09;71.13
57644;BME280;43474;46.510;6.686;2023-09-12T01:15:10;96222.25;;;25.10;71.16
57644;BME280;43474;46.510;6.686;2023-09-12T01:17:41;96210.19;;;25.08;71.53
57644;BME280;43474;46.510;6.686;2023-09-12T01:20:25;96199.50;;;25.02;71.58
57644;BME280;43474;46.510;6.686;2023-09-12T01:23:00;96214.47;;;25.09;71.26
57644;BME280;43474;46.510;6.686;2023-09-12T01:28:15;96218.31;;;25.08;70.69
57644;BME280;43474;46.510;6.686;2023-09-12T01:30:45;96219.44;;;25.07;70.48
57644;BME280;43474;46.510;6.686;2023-09-12T01:33:11;96227.38;;;25.12;70.16
57644;BME280;43474;46.510;6.686;2023-09-12T01:35:37;96236.94;;;25.09;70.04
57644;BME280;43474;46.510;6.686;2023-09-12T01:38:03;96233.09;;;25.10;69.98
57644;BME280;43474;46.510;6.686;2023-09-12T01:40:40;96231.19;;;25.11;69.82
57644;BME280;43474;46.510;6.686;2023-09-12T01:43:08;96230.72;;;25.09;69.90
57644;BME280;43474;46.510;6.686;2023-09-12T01:45:35;96225.31;;;25.09;70.09
57644;BME280;43474;46.510;6.686;2023-09-12T01:48:01;96210.88;;;24.96;70.07
57644;BME280;43474;46.510;6.686;2023-09-12T01:50:28;96232.78;;;25.12;70.72
57644;BME280;43474;46.510;6.686;2023-09-12T01:52:54;96233.44;;;25.09;70.76
57644;BME280;43474;46.510;6.686;2023-09-12T01:55:20;96231.06;;;25.07;70.59
57644;BME280;43474;46.510;6.686;2023-09-12T01:57:48;96219.44;;;25.07;70.62
57644;BME280;43474;46.510;6.686;2023-09-12T02:00:13;96212.19;;;25.11;70.40
57644;BME280;43474;46.510;6.686;2023-09-12T02:02:39;96209.03;;;25.09;70.68
57644;BME280;43474;46.510;6.686;2023-09-12T02:05:11;96200.75;;;25.05;70.54
57644;BME280;43474;46.510;6.686;2023-09-12T02:07:40;96202.81;;;25.08;70.28
57644;BME280;43474;46.510;6.686;2023-09-12T02:10:06;96189.63;;;25.07;69.74
57644;BME280;43474;46.510;6.686;2023-09-12T02:12:32;96186.41;;;25.05;69.35
57644;BME280;43474;46.510;6.686;2023-09-12T02:14:58;96190.59;;;25.02;69.34
57644;BME280;43474;46.510;6.686;2023-09-12T02:17:24;96183.69;;;25.05;69.31
57644;BME280;43474;46.510;6.686;2023-09-12T02:19:49;96180.19;;;25.04;68.94
57644;BME280;43474;46.510;6.686;2023-09-12T02:22:15;96194.69;;;25.08;69.09
57644;BME280;43474;46.510;6.686;2023-09-12T02:24:40;96190.69;;;25.06;68.84
57644;BME280;43474;46.510;6.686;2023-09-12T02:27:06;96187.97;;;25.06;68.65
57644;BME280;43474;46.510;6.686;2023-09-12T02:29:32;96189.47;;;25.03;69.00
57644;BME280;43474;46.510;6.686;2023-09-12T02:32:01;96187.69;;;25.07;68.91
57644;BME280;43474;46.510;6.686;2023-09-12T02:34:26;96193.13;;;25.07;69.10
57644;BME280;43474;46.510;6.686;2023-09-12T02:36:52;96182.56;;;25.06;68.87
57644;BME280;43474;46.510;6.686;2023-09-12T02:39:18;96176.34;;;25.05;69.54
57644;BME280;43474;46.510;6.686;2023-09-12T02:41:44;96192.78;;;25.09;69.40
57644;BME280;43474;46.510;6.686;2023-09-12T02:44:09;96191.97;;;25.08;69.60
57644;BME280;43474;46.510;6.686;2023-09-12T02:46:36;96182.56;;;25.06;69.36
57644;BME280;43474;46.510;6.686;2023-09-12T02:49:02;96188.47;;;25.08;69.60
57644;BME280;43474;46.510;6.686;2023-09-12T02:51:28;96194.19;;;25.06;69.75
57644;BME280;43474;46.510;6.686;2023-09-12T02:53:53;96190.41;;;25.07;69.30
57644;BME280;43474;46.510;6.686;2023-09-12T02:56:19;96191.97;;;25.08;69.39
57644;BME280;43474;46.510;6.686;2023-09-12T02:58:49;96191.19;;;25.08;69.20
57644;BME280;43474;46.510;6.686;2023-09-12T03:01:19;96194.69;;;25.08;69.03
57644;BME280;43474;46.510;6.686;2023-09-12T03:03:50;96199.31;;;25.08;69.17
57644;BME280;43474;46.510;6.686;2023-09-12T03:06:16;96193.91;;;25.08;69.12
57644;BME280;43474;46.510;6.686;2023-09-12T03:08:44;96186.91;;;25.07;69.47
57644;BME280;43474;46.510;6.686;2023-09-12T03:11:10;96175.09;;;25.02;68.96
57644;BME280;43474;46.510;6.686;2023-09-12T03:13:40;96177.81;;;25.02;69.23
57644;BME280;43474;46.510;6.686;2023-09-12T03:16:10;96178.44;;;25.08;69.12
57644;BME280;43474;46.510;6.686;2023-09-12T03:18:36;96181.13;;;25.08;69.16
57644;BME280;43474;46.510;6.686;2023-09-12T03:21:02;96172.22;;;25.08;68.99
57644;BME280;43474;46.510;6.686;2023-09-12T03:23:28;96168.09;;;25.01;69.45
57644;BME280;43474;46.510;6.686;2023-09-12T03:25:53;96174.13;;;25.07;69.14
57644;BME280;43474;46.510;6.686;2023-09-12T03:28:19;96176.84;;;25.07;69.10
57644;BME280;43474;46.510;6.686;2023-09-12T03:30:45;96169.34;;;25.04;69.18
57644;BME280;43474;46.510;6.686;2023-09-12T03:33:10;96168.41;;;25.00;69.17
57644;BME280;43474;46.510;6.686;2023-09-12T03:35:36;96185.59;;;25.04;69.29
57644;BME280;43474;46.510;6.686;2023-09-12T03:38:01;96178.59;;;25.03;69.30
57644;BME280;43474;46.510;6.686;2023-09-12T03:40:31;96190.41;;;25.07;69.22
57644;BME280;43474;46.510;6.686;2023-09-12T03:42:57;96191.97;;;25.08;69.27
57644;BME280;43474;46.510;6.686;2023-09-12T03:45:23;96178.59;;;25.03;69.02
57644;BME280;43474;46.510;6.686;2023-09-12T03:47:49;96188.75;;;25.06;69.18
57644;BME280;43474;46.510;6.686;2023-09-12T03:50:15;96162.63;;;24.89;69.38
57644;BME280;43474;46.510;6.686;2023-09-12T03:52:40;96185.59;;;25.04;69.09
57644;BME280;43474;46.510;6.686;2023-09-12T03:55:06;96196.13;;;25.06;69.24
57644;BME280;43474;46.510;6.686;2023-09-12T03:57:32;96192.16;;;25.03;69.45
57644;BME280;43474;46.510;6.686;2023-09-12T03:59:58;96182.75;;;25.00;68.92
57644;BME280;43474;46.510;6.686;2023-09-12T04:02:24;96194.53;;;25.05;68.90
57644;BME280;43474;46.510;6.686;2023-09-12T04:04:49;96178.13;;;25.01;68.92
57644;BME280;43474;46.510;6.686;2023-09-12T04:07:17;96186.06;;;25.06;69.00
57644;BME280;43474;46.510;6.686;2023-09-12T04:09:43;96178.59;;;25.03;69.38
57644;BME280;43474;46.510;6.686;2023-09-12T04:12:08;96179.06;;;25.05;69.22
57644;BME280;43474;46.510;6.686;2023-09-12T04:14:35;96176.34;;;25.05;69.04
57644;BME280;43474;46.510;6.686;2023-09-12T04:17:01;96183.34;;;25.06;69.21
57644;BME280;43474;46.510;6.686;2023-09-12T04:19:27;96178.75;;;25.07;69.07
57644;BME280;43474;46.510;6.686;2023-09-12T04:21:52;96178.59;;;25.03;69.16
57644;BME280;43474;46.510;6.686;2023-09-12T04:24:18;96173.97;;;25.04;69.31
57644;BME280;43474;46.510;6.686;2023-09-12T04:26:44;96176.34;;;25.05;69.28
57644;BME280;43474;46.510;6.686;2023-09-12T04:29:10;96169.69;;;25.02;69.41
57644;BME280;43474;46.510;6.686;2023-09-12T04:31:36;96167.41;;;25.05;69.65
57644;BME280;43474;46.510;6.686;2023-09-12T04:34:02;96161.41;;;24.99;69.25
57644;BME280;43474;46.510;6.686;2023-09-12T04:36:27;96163.78;;;25.00;69.49
57644;BME280;43474;46.510;6.686;2023-09-12T04:38:53;96161.22;;;25.04;69.69
57644;BME280;43474;46.510;6.686;2023-09-12T04:41:18;96167.75;;;25.03;69.70
57644;BME280;43474;46.510;6.686;2023-09-12T04:43:44;96168.09;;;25.01;69.39
57644;BME280;43474;46.510;6.686;2023-09-12T04:46:10;96173.97;;;25.04;69.40
57644;BME280;43474;46.510;6.686;2023-09-12T04:48:37;96166.97;;;25.02;69.14
57644;BME280;43474;46.510;6.686;2023-09-12T04:51:03;96173.19;;;25.03;68.95
57644;BME280;43474;46.510;6.686;2023-09-12T04:53:29;96171.59;;;25.02;68.60
57644;BME280;43474;46.510;6.686;2023-09-12T04:56:03;96165.72;;;25.00;68.83
57644;BME280;43474;46.510;6.686;2023-09-12T04:58:29;96168.91;;;25.02;68.72
57644;BME280;43474;46.510;6.686;2023-09-12T05:00:55;96170.34;;;24.99;68.40
57644;BME280;43474;46.510;6.686;2023-09-12T05:03:22;96183.56;;;25.01;68.73
57644;BME280;43474;46.510;6.686;2023-09-12T05:05:49;96181.19;;;24.99;68.36
57644;BME280;43474;46.510;6.686;2023-09-12T05:08:18;96177.69;;;24.99;68.44
57644;BME280;43474;46.510;6.686;2023-09-12T05:10:44;96166.06;;;24.98;68.32
57644;BME280;43474;46.510;6.686;2023-09-12T05:13:09;96166.72;;;24.95;68.49
57644;BME280;43474;46.510;6.686;2023-09-12T05:15:35;96174.97;;;24.99;68.68
57644;BME280;43474;46.510;6.686;2023-09-12T05:18:02;96168.41;;;25.00;68.57
57644;BME280;43474;46.510;6.686;2023-09-12T05:20:28;96172.94;;;24.96;68.35
57644;BME280;43474;46.510;6.686;2023-09-12T05:22:53;96175.31;;;24.97;68.49
57644;BME280;43474;46.510;6.686;2023-09-12T05:25:19;96160.59;;;24.86;68.34
57644;BME280;43474;46.510;6.686;2023-09-12T05:27:44;96186.03;;;24.94;68.52
57644;BME280;43474;46.510;6.686;2023-09-12T05:30:10;96191.81;;;24.92;68.47
57644;BME280;43474;46.510;6.686;2023-09-12T05:32:36;96191.22;;;24.87;68.36
57644;BME280;43474;46.510;6.686;2023-09-12T05:35:02;96203.97;;;24.86;67.96
57644;BME280;43474;46.510;6.686;2023-09-12T05:37:31;96207.00;;;24.85;67.44
57644;BME280;43474;46.510;6.686;2023-09-12T05:39:56;96205.09;;;24.85;67.35
57644;BME280;43474;46.510;6.686;2023-09-12T05:42:22;96200.00;;;24.84;67.40
57644;BME280;43474;46.510;6.686;2023-09-12T05:44:48;96208.13;;;24.84;67.43
57644;BME280;43474;46.510;6.686;2023-09-12T05:47:15;96203.84;;;24.83;67.05
57644;BME280;43474;46.510;6.686;2023-09-12T05:49:41;96205.78;;;24.82;67.00
57644;BME280;43474;46.510;6.686;2023-09-12T05:52:07;96214.69;;;24.83;67.13
57644;BME280;43474;46.510;6.686;2023-09-12T05:54:32;96211.97;;;24.83;66.90
57644;BME280;43474;46.510;6.686;2023-09-12T05:56:58;96203.06;;;24.82;67.42
57644;BME280;43474;46.510;6.686;2023-09-12T05:59:23;96201.00;;;24.79;67.44
57644;BME280;43474;46.510;6.686;2023-09-12T06:01:49;96195.94;;;24.78;67.78
57644;BME280;43474;46.510;6.686;2023-09-12T06:04:14;96187.22;;;24.72;68.82
57644;BME280;43474;46.510;6.686;2023-09-12T06:06:40;96202.47;;;24.77;69.74
57644;BME280;43474;46.510;6.686;2023-09-12T06:09:06;96206.28;;;24.75;70.50
57644;BME280;43474;46.510;6.686;2023-09-12T06:11:32;96200.09;;;24.75;70.40
57644;BME280;43474;46.510;6.686;2023-09-12T06:13:57;96201.66;;;24.76;70.26
57644;BME280;43474;46.510;6.686;2023-09-12T06:16:23;96210.13;;;24.74;70.38
57644;BME280;43474;46.510;6.686;2023-09-12T06:18:49;96217.63;;;24.78;70.73
57644;BME280;43474;46.510;6.686;2023-09-12T06:21:15;96216.69;;;24.73;71.18
57644;BME280;43474;46.510;6.686;2023-09-12T06:23:40;96215.91;;;24.73;71.22
57644;BME280;43474;46.510;6.686;2023-09-12T06:26:06;96213.31;;;24.77;71.49
57644;BME280;43474;46.510;6.686;2023-09-12T06:28:32;96217.63;;;24.78;71.38
57644;BME280;43474;46.510;6.686;2023-09-12T06:30:58;96211.72;;;24.75;71.38
57644;BME280;43474;46.510;6.686;2023-09-12T06:33:25;96206.84;;;24.69;72.43
57644;BME280;43474;46.510;6.686;2023-09-12T06:35:52;96213.97;;;24.73;72.58
57644;BME280;43474;46.510;6.686;2023-09-12T06:38:21;96205.41;;;24.71;73.21
57644;BME280;43474;46.510;6.686;2023-09-12T06:40:47;96212.41;;;24.72;72.90
57644;BME280;43474;46.510;6.686;2023-09-12T06:43:13;96217.91;;;24.76;72.96
57644;BME280;43474;46.510;6.686;2023-09-12T06:45:42;96218.75;;;24.77;73.35
57644;BME280;43474;46.510;6.686;2023-09-12T06:48:08;96216.34;;;24.75;73.63
57644;BME280;43474;46.510;6.686;2023-09-12T06:50:34;96228.66;;;24.72;74.17
57644;BME280;43474;46.510;6.686;2023-09-12T06:53:00;96226.88;;;24.77;74.30
57644;BME280;43474;46.510;6.686;2023-09-12T06:55:27;96218.13;;;24.71;74.57
57644;BME280;43474;46.510;6.686;2023-09-12T06:57:53;96225.41;;;24.79;74.03
57644;BME280;43474;46.510;6.686;2023-09-12T07:00:19;96229.25;;;24.78;74.03
57644;BME280;43474;46.510;6.686;2023-09-12T07:02:45;96230.81;;;24.79;73.66
57644;BME280;43474;46.510;6.686;2023-09-12T07:05:11;96237.50;;;24.82;73.11
57644;BME280;43474;46.510;6.686;2023-09-12T07:07:36;96232.75;;;24.79;72.52
57644;BME280;43474;46.510;6.686;2023-09-12T07:10:02;96233.41;;;24.75;72.36
57644;BME280;43474;46.510;6.686;2023-09-12T07:12:28;96208.81;;;24.60;71.93
57644;BME280;43474;46.510;6.686;2023-09-12T07:14:55;96241.22;;;24.77;71.56
57644;BME280;43474;46.510;6.686;2023-09-12T07:17:21;96244.25;;;24.75;72.08
57644;BME280;43474;46.510;6.686;2023-09-12T07:19:47;96233.09;;;24.77;71.65
57644;BME280;43474;46.510;6.686;2023-09-12T07:22:13;96241.53;;;24.75;71.59
57644;BME280;43474;46.510;6.686;2023-09-12T07:24:38;96223.75;;;24.66;71.38
57644;BME280;43474;46.510;6.686;2023-09-12T07:27:04;96235.53;;;24.70;71.68
57644;BME280;43474;46.510;6.686;2023-09-12T07:29:30;96250.44;;;24.76;71.12
57644;BME280;43474;46.510;6.686;2023-09-12T07:31:55;96250.00;;;24.74;71.06
57644;BME280;43474;46.510;6.686;2023-09-12T07:34:22;96243.66;;;24.70;71.16
57644;BME280;43474;46.510;6.686;2023-09-12T07:36:48;96252.25;;;24.72;71.04
57644;BME280;43474;46.510;6.686;2023-09-12T07:39:14;96252.72;;;24.74;71.25
57644;BME280;43474;46.510;6.686;2023-09-12T07:41:40;96238.22;;;24.70;71.08
57644;BME280;43474;46.510;6.686;2023-09-12T07:44:05;96252.94;;;24.81;71.01
57644;BME280;43474;46.510;6.686;2023-09-12T07:46:49;96257.47;;;24.77;70.95
57644;BME280;43474;46.510;6.686;2023-09-12T07:49:14;96259.84;;;24.79;70.77
57644;BME280;43474;46.510;6.686;2023-09-12T07:51:40;96262.91;;;24.77;70.67
57644;BME280;43474;46.510;6.686;2023-09-12T07:54:06;96259.25;;;24.73;70.37
57644;BME280;43474;46.510;6.686;2023-09-12T07:56:31;96260.19;;;24.77;70.42
57644;BME280;43474;46.510;6.686;2023-09-12T07:58:57;96266.72;;;24.76;70.48
57644;BME280;43474;46.510;6.686;2023-09-12T08:01:23;96264.53;;;24.69;69.32
57644;BME280;43474;46.510;6.686;2023-09-12T08:03:49;96266.91;;;24.71;69.17
57644;BME280;43474;46.510;6.686;2023-09-12T08:06:15;96275.19;;;24.74;69.64
57644;BME280;43474;46.510;6.686;2023-09-12T08:08:41;96269.16;;;24.69;69.65
57644;BME280;43474;46.510;6.686;2023-09-12T08:11:06;96257.25;;;24.61;70.23
57644;BME280;43474;46.510;6.686;2023-09-12T08:13:32;96282.97;;;24.76;70.58
57644;BME280;43474;46.510;6.686;2023-09-12T08:16:00;96281.88;;;24.77;70.80
57644;BME280;43474;46.510;6.686;2023-09-12T08:18:30;96298.03;;;24.86;71.39
57644;BME280;43474;46.510;6.686;2023-09-12T08:20:58;96291.72;;;24.82;71.75
57644;BME280;43474;46.510;6.686;2023-09-12T08:23:24;96289.81;;;24.82;72.41
57644;BME280;43474;46.510;6.686;2023-09-12T08:25:50;96298.72;;;24.83;73.16
57644;BME280;43474;46.510;6.686;2023-09-12T08:28:16;96301.28;;;24.79;73.93
57644;BME280;43474;46.510;6.686;2023-09-12T08:30:44;96306.19;;;24.86;73.94
57644;BME280;43474;46.510;6.686;2023-09-12T08:33:10;96301.88;;;24.85;74.91
57644;BME280;43474;46.510;6.686;2023-09-12T08:35:36;96301.09;;;24.84;75.70
57644;BME280;43474;46.510;6.686;2023-09-12T08:38:02;96286.63;;;24.80;76.75
57644;BME280;43474;46.510;6.686;2023-09-12T08:40:27;96277.44;;;24.72;76.62
57644;BME280;43474;46.510;6.686;2023-09-12T08:42:57;96302.03;;;24.88;77.19
57644;BME280;43474;46.510;6.686;2023-09-12T08:45:23;96289.22;;;24.77;76.84
57644;BME280;43474;46.510;6.686;2023-09-12T08:47:53;96288.88;;;24.78;75.91
57644;BME280;43474;46.510;6.686;2023-09-12T08:50:20;96283.25;;;24.83;75.38
57644;BME280;43474;46.510;6.686;2023-09-12T08:52:49;96307.59;;;24.92;75.93
57644;BME280;43474;46.510;6.686;2023-09-12T08:55:14;96306.53;;;24.84;76.89
57644;BME280;43474;46.510;6.686;2023-09-12T08:57:41;96291.94;;;24.77;77.11
57644;BME280;43474;46.510;6.686;2023-09-12T09:00:08;96305.94;;;24.79;77.89
57644;BME280;43474;46.510;6.686;2023-09-12T09:02:36;96318.34;;;24.80;76.98
57644;BME280;43474;46.510;6.686;2023-09-12T09:05:04;96279.47;;;24.55;77.09
57644;BME280;43474;46.510;6.686;2023-09-12T09:07:33;96312.34;;;24.74;76.31
57644;BME280;43474;46.510;6.686;2023-09-12T09:10:02;96307.69;;;24.74;75.80
57644;BME280;43474;46.510;6.686;2023-09-12T09:12:30;96315.31;;;24.81;75.37
57644;BME280;43474;46.510;6.686;2023-09-12T09:14:56;96311.78;;;24.81;73.29
57644;BME280;43474;46.510;6.686;2023-09-12T09:17:21;96301.75;;;24.81;72.88
57644;BME280;43474;46.510;6.686;2023-09-12T09:19:47;96302.69;;;24.85;73.09
57644;BME280;43474;46.510;6.686;2023-09-12T09:22:13;96298.03;;;24.86;72.90
57644;BME280;43474;46.510;6.686;2023-09-12T09:24:39;96298.03;;;24.86;72.63
57644;BME280;43474;46.510;6.686;2023-09-12T09:27:04;96296.94;;;24.87;72.79
57644;BME280;43474;46.510;6.686;2023-09-12T09:29:30;96284.63;;;24.89;72.42
57644;BME280;43474;46.510;6.686;2023-09-12T09:32:00;96291.31;;;24.92;72.45
57644;BME280;43474;46.510;6.686;2023-09-12T09:34:26;96289.84;;;24.94;72.11
57644;BME280;43474;46.510;6.686;2023-09-12T09:36:56;96288.72;;;24.95;71.98
57644;BME280;43474;46.510;6.686;2023-09-12T09:39:23;96287.28;;;24.98;71.45
57644;BME280;43474;46.510;6.686;2023-09-12T09:41:54;96285.34;;;24.98;70.69
57644;BME280;43474;46.510;6.686;2023-09-12T09:44:21;96291.56;;;24.99;70.59
57644;BME280;43474;46.510;6.686;2023-09-12T09:46:51;96286.94;;;24.99;70.26
57644;BME280;43474;46.510;6.686;2023-09-12T09:49:19;96285.00;;;25.00;70.65
57644;BME280;43474;46.510;6.686;2023-09-12T09:51:45;96282.78;;;25.02;70.30
57644;BME280;43474;46.510;6.686;2023-09-12T09:54:12;96293.63;;;25.02;70.15
57644;BME280;43474;46.510;6.686;2023-09-12T09:56:47;96286.59;;;25.01;70.00
57644;BME280;43474;46.510;6.686;2023-09-12T09:59:14;96286.28;;;25.02;69.88
57644;BME280;43474;46.510;6.686;2023-09-12T10:01:41;96288.66;;;25.04;68.82
57644;BME280;43474;46.510;6.686;2023-09-12T10:04:08;96279.72;;;25.04;68.85
57644;BME280;43474;46.510;6.686;2023-09-12T10:06:36;96284.97;;;25.09;68.74
57644;BME280;43474;46.510;6.686;2023-09-12T10:09:06;96280.69;;;25.08;68.83
57644;BME280;43474;46.510;6.686;2023-09-12T10:11:34;96284.53;;;25.07;69.42
57644;BME280;43474;46.510;6.686;2023-09-12T10:14:03;96279.19;;;25.10;69.12
57644;BME280;43474;46.510;6.686;2023-09-12T10:16:30;96280.34;;;25.09;69.65
57644;BME280;43474;46.510;6.686;2023-09-12T10:22:06;96286.91;;;25.08;69.75
57644;BME280;43474;46.510;6.686;2023-09-12T10:24:32;96281.91;;;25.10;69.82
57644;BME280;43474;46.510;6.686;2023-09-12T10:27:00;96278.91;;;25.12;69.57
57644;BME280;43474;46.510;6.686;2023-09-12T10:29:27;96282.84;;;25.14;69.59
57644;BME280;43474;46.510;6.686;2023-09-12T10:31:53;96278.91;;;25.12;69.62
57644;BME280;43474;46.510;6.686;2023-09-12T10:34:20;96280.47;;;25.13;69.19
57644;BME280;43474;46.510;6.686;2023-09-12T10:36:46;96276.63;;;25.14;68.44
57644;BME280;43474;46.510;6.686;2023-09-12T10:39:14;96274.56;;;25.11;68.63
57644;BME280;43474;46.510;6.686;2023-09-12T10:41:40;96269.97;;;25.11;68.74
57644;BME280;43474;46.510;6.686;2023-09-12T10:44:09;96277.75;;;25.13;68.65
57644;BME280;43474;46.510;6.686;2023-09-12T10:46:39;96277.75;;;25.13;68.38
57644;BME280;43474;46.510;6.686;2023-09-12T10:49:12;96275.84;;;25.13;68.17
57644;BME280;43474;46.510;6.686;2023-09-12T10:51:39;96268.84;;;25.12;66.71
57644;BME280;43474;46.510;6.686;2023-09-12T10:54:05;96274.69;;;25.14;66.82
57644;BME280;43474;46.510;6.686;2023-09-12T10:56:33;96278.91;;;25.12;67.08
57644;BME280;43474;46.510;6.686;2023-09-12T11:01:31;96277.28;;;25.11;66.87
57644;BME280;43474;46.510;6.686;2023-09-12T11:03:56;96265.66;;;25.10;67.11
57644;BME280;43474;46.510;6.686;2023-09-12T11:06:29;96270.41;;;25.13;65.71
57644;BME280;43474;46.510;6.686;2023-09-12T11:11:47;96273.91;;;25.14;64.63
57644;BME280;43474;46.510;6.686;2023-09-12T11:14:13;96280.47;;;25.13;65.11
57644;BME280;43474;46.510;6.686;2023-09-12T11:16:39;96270.53;;;25.17;63.61
57644;BME280;43474;46.510;6.686;2023-09-12T11:19:18;96270.06;;;25.15;63.69
57644;BME280;43474;46.510;6.686;2023-09-12T11:21:50;96272.78;;;25.15;63.68
57644;BME280;43474;46.510;6.686;2023-09-12T11:24:16;96266.13;;;25.12;63.88
57644;BME280;43474;46.510;6.686;2023-09-12T11:27:01;96273.47;;;25.12;63.23
57644;BME280;43474;46.510;6.686;2023-09-12T11:29:38;96271.84;;;25.11;63.13
57644;BME280;43474;46.510;6.686;2023-09-12T11:32:04;96266.78;;;25.09;62.14
57644;BME280;43474;46.510;6.686;2023-09-12T11:34:37;96265.19;;;25.08;61.65
57644;BME280;43474;46.510;6.686;2023-09-12T11:37:04;96270.28;;;25.10;61.77
57644;BME280;43474;46.510;6.686;2023-09-12T11:39:32;96268.69;;;25.09;61.33
57644;BME280;43474;46.510;6.686;2023-09-12T11:42:00;96263.28;;;25.09;60.04
57644;BME280;43474;46.510;6.686;2023-09-12T11:44:27;96265.19;;;25.08;60.64
57644;BME280;43474;46.510;6.686;2023-09-12T11:46:54;96261.69;;;25.08;60.25
57644;BME280;43474;46.510;6.686;2023-09-12T11:49:35;96257.84;;;25.09;60.17
57644;BME280;43474;46.510;6.686;2023-09-12T11:52:01;96257.06;;;25.08;58.36
57644;BME280;43474;46.510;6.686;2023-09-12T11:54:26;96255.47;;;25.07;59.15
57644;BME280;43474;46.510;6.686;2023-09-12T11:56:55;96261.69;;;25.08;59.43
57644;BME280;43474;46.510;6.686;2023-09-12T11:59:29;96251.13;;;25.06;59.53
57644;BME280;43474;46.510;6.686;2023-09-12T12:01:55;96250.84;;;25.08;58.56
57644;BME280;43474;46.510;6.686;2023-09-12T12:04:22;96240.00;;;25.08;59.08
57644;BME280;43474;46.510;6.686;2023-09-12T12:06:50;96244.28;;;25.09;58.74
57644;BME280;43474;46.510;6.686;2023-09-12T12:09:16;96237.28;;;25.08;59.52
57644;BME280;43474;46.510;6.686;2023-09-12T12:11:44;96233.09;;;25.10;59.27
57644;BME280;43474;46.510;6.686;2023-09-12T12:14:15;96234.72;;;25.11;59.09
57644;BME280;43474;46.510;6.686;2023-09-12T12:16:42;96239.31;;;25.11;59.30
57644;BME280;43474;46.510;6.686;2023-09-12T12:19:12;96235.81;;;25.10;59.19
57644;BME280;43474;46.510;6.686;2023-09-12T12:21:40;96234.72;;;25.11;59.49
57644;BME280;43474;46.510;6.686;2023-09-12T12:24:07;96232.00;;;25.11;59.65
57644;BME280;43474;46.510;6.686;2023-09-12T12:26:33;96229.28;;;25.11;59.80
57644;BME280;43474;46.510;6.686;2023-09-12T12:29:00;96222.72;;;25.12;60.14
57644;BME280;43474;46.510;6.686;2023-09-12T12:31:26;96228.16;;;25.12;60.02
57644;BME280;43474;46.510;6.686;2023-09-12T12:33:53;96215.38;;;25.13;60.19
57644;BME280;43474;46.510;6.686;2023-09-12T12:36:19;96219.69;;;25.14;60.52
57644;BME280;43474;46.510;6.686;2023-09-12T12:38:47;96216.97;;;25.14;60.64
57644;BME280;43474;46.510;6.686;2023-09-12T12:41:15;96212.66;;;25.13;60.16
57644;BME280;43474;46.510;6.686;2023-09-12T12:43:41;96208.81;;;25.14;60.93
57644;BME280;43474;46.510;6.686;2023-09-12T12:46:11;96208.81;;;25.14;60.52
57644;BME280;43474;46.510;6.686;2023-09-12T12:48:43;96208.81;;;25.14;60.93
57644;BME280;43474;46.510;6.686;2023-09-12T12:51:17;96208.81;;;25.14;60.74
57644;BME280;43474;46.510;6.686;2023-09-12T12:53:48;96206.13;;;25.14;60.85
57644;BME280;43474;46.510;6.686;2023-09-12T12:56:17;96211.53;;;25.14;60.99
57644;BME280;43474;46.510;6.686;2023-09-12T12:58:52;96211.19;;;25.15;61.45
57644;BME280;43474;46.510;6.686;2023-09-12T13:01:18;96202.28;;;25.15;61.42
57644;BME280;43474;46.510;6.686;2023-09-12T13:03:44;96200.34;;;25.15;60.77
57644;BME280;43474;46.510;6.686;2023-09-12T13:06:11;96203.06;;;25.15;61.06
57644;BME280;43474;46.510;6.686;2023-09-12T13:08:41;96198.44;;;25.16;61.43
57644;BME280;43474;46.510;6.686;2023-09-12T13:11:09;96197.97;;;25.14;61.22